Time;durP1;ratioP1;P1;durP2;ratioP2;P2;SDS_P1;SDS_P2;PMS_P1;PMS_P2;Temp;Humidity;BMP_temperature;BMP_pressure;BME280_temperature;BME280_humidity;BME280_pressure;Samples;Min_cycle;Max_cycle;Signal;HPM_P1;HPM_P2
2022/04/25 00:02:25;;;;;;;23.58;7.13;;;;;;;14.71;58.86;94730.94;5067669;28;20024;-68
2022/04/25 00:04:51;;;;;;;13.63;5.35;;;;;;;14.67;58.95;94737.00;5068218;28;20040;-69
2022/04/25 00:07:16;;;;;;;19.73;5.75;;;;;;;14.68;58.24;94736.78;5068179;28;20021;-70
2022/04/25 00:09:42;;;;;;;14.80;5.45;;;;;;;14.67;58.64;94748.59;5067302;28;20028;-70
2022/04/25 00:12:08;;;;;;;16.10;6.20;;;;;;;14.64;58.99;94749.03;5068032;28;20046;-70
2022/04/25 00:14:33;;;;;;;17.08;6.28;;;;;;;14.62;58.56;94747.63;5067091;28;20037;-70
2022/04/25 00:16:59;;;;;;;18.40;5.88;;;;;;;14.56;59.29;94730.41;5068470;28;20025;-69
2022/04/25 00:19:25;;;;;;;16.30;5.63;;;;;;;14.49;59.47;94749.38;5067665;28;20029;-68
2022/04/25 00:21:51;;;;;;;17.42;5.68;;;;;;;14.57;58.82;94748.28;5068316;28;20492;-68
2022/04/25 00:24:17;;;;;;;15.63;5.90;;;;;;;14.51;59.07;94741.06;5067363;28;20542;-69
2022/04/25 00:26:43;;;;;;;16.17;5.78;;;;;;;14.49;59.67;94738.56;5067280;28;20521;-69
2022/04/25 00:29:08;;;;;;;20.70;6.20;;;;;;;14.49;59.72;94740.44;5067661;28;20028;-69
2022/04/25 00:31:33;;;;;;;14.77;5.95;;;;;;;14.49;59.72;94740.44;5066835;28;20040;-69
2022/04/25 00:33:59;;;;;;;18.60;6.75;;;;;;;14.49;59.55;94740.44;5068362;28;20025;-69
2022/04/25 00:36:24;;;;;;;22.08;5.90;;;;;;;14.46;59.88;94742.53;5066828;28;20070;-69
2022/04/25 00:38:50;;;;;;;24.92;6.85;;;;;;;14.48;59.38;94744.19;5067761;28;20101;-69
2022/04/25 00:41:16;;;;;;;19.38;6.63;;;;;;;14.41;59.76;94736.94;5066916;28;20037;-68
2022/04/25 00:43:41;;;;;;;22.30;6.20;;;;;;;14.40;59.70;94739.88;5067271;28;20510;-69
2022/04/25 00:46:07;;;;;;;21.20;5.97;;;;;;;14.34;60.26;94745.13;5067296;28;20021;-70
2022/04/25 00:48:32;;;;;;;15.02;5.55;;;;;;;14.34;59.99;94736.19;5048348;28;20475;-69
2022/04/25 00:50:57;;;;;;;19.90;6.28;;;;;;;14.39;60.24;94746.31;5067637;28;20029;-69
2022/04/25 00:53:23;;;;;;;25.90;6.35;;;;;;;14.39;59.73;94743.63;5066284;28;20028;-69
2022/04/25 00:55:48;;;;;;;14.75;6.63;;;;;;;14.29;60.36;94738.69;5067740;28;20036;-69
2022/04/25 00:58:14;;;;;;;19.58;6.00;;;;;;;14.22;60.65;94719.84;5032001;28;20028;-69
2022/04/25 01:00:39;;;;;;;12.18;5.93;;;;;;;14.21;60.22;94719.06;5067222;28;20433;-70
2022/04/25 01:03:05;;;;;;;19.95;6.72;;;;;;;14.20;60.09;94720.06;5048907;28;20032;-69
2022/04/25 01:05:30;;;;;;;24.75;6.80;;;;;;;14.19;59.73;94707.66;5066700;28;20024;-69
2022/04/25 01:07:55;;;;;;;16.58;6.15;;;;;;;14.11;60.47;94707.06;5067170;28;20039;-69
2022/04/25 01:10:21;;;;;;;16.02;6.50;;;;;;;13.95;61.74;94706.53;5047611;28;20035;-69
2022/04/25 01:12:46;;;;;;;18.08;6.05;;;;;;;13.80;61.71;94687.97;5067366;28;20021;-70
2022/04/25 01:15:12;;;;;;;16.95;5.22;;;;;;;13.90;60.36;94688.31;5065993;28;20028;-70
2022/04/25 01:17:38;;;;;;;16.73;5.55;;;;;;;13.94;60.85;94692.25;5049121;28;20060;-69
2022/04/25 01:20:05;;;;;;;11.60;5.15;;;;;;;13.89;60.89;94693.94;5066317;28;20070;-69
2022/04/25 01:22:41;;;;;;;21.90;5.70;;;;;;;13.90;60.52;94685.63;5066612;28;20032;-69
2022/04/25 01:27:50;;;;;;;18.33;5.68;;;;;;;13.83;59.80;94679.47;5065996;28;20070;-69
2022/04/25 01:30:16;;;;;;;14.10;5.03;;;;;;;13.90;60.10;94679.41;5067027;28;20028;-70
2022/04/25 01:32:41;;;;;;;11.73;4.72;;;;;;;13.94;59.74;94668.00;5065686;28;20031;-69
2022/04/25 01:35:07;;;;;;;18.42;4.78;;;;;;;14.02;59.44;94676.84;5066861;28;20028;-69
2022/04/25 01:37:32;;;;;;;21.00;5.30;;;;;;;14.04;59.36;94674.78;5066084;28;20017;-69
2022/04/25 01:39:58;;;;;;;17.02;5.50;;;;;;;14.11;58.99;94683.63;5047976;28;20412;-70
2022/04/25 01:42:23;;;;;;;10.80;4.25;;;;;;;14.16;58.57;94683.81;5067107;28;20028;-70
2022/04/25 01:44:49;;;;;;;23.08;4.53;;;;;;;14.19;58.51;94693.31;5065263;28;20673;-69
2022/04/25 01:47:15;;;;;;;14.07;4.97;;;;;;;14.21;58.32;94689.38;5066516;28;20071;-71
2022/04/25 01:49:40;;;;;;;20.48;5.15;;;;;;;14.26;58.13;94694.13;5065250;28;20032;-69
2022/04/25 01:52:10;;;;;;;16.05;5.53;;;;;;;14.26;58.44;94694.13;5066966;28;20066;-70
2022/04/25 01:54:36;;;;;;;21.90;5.68;;;;;;;14.17;59.15;94671.16;5047425;28;20033;-70
2022/04/25 01:57:01;;;;;;;12.93;4.70;;;;;;;14.20;58.58;94668.03;5066283;28;20024;-69
2022/04/25 01:59:27;;;;;;;12.98;4.78;;;;;;;14.23;58.05;94661.38;5065853;28;20021;-69
2022/04/25 02:01:52;;;;;;;12.05;4.25;;;;;;;14.19;58.28;94656.41;5065281;28;20478;-70
2022/04/25 02:04:19;;;;;;;23.08;5.25;;;;;;;14.12;58.52;94650.25;5066368;28;20032;-69
2022/04/25 02:06:44;;;;;;;23.05;5.13;;;;;;;14.11;58.29;94647.75;5047162;28;20031;-69
2022/04/25 02:09:09;;;;;;;16.30;4.95;;;;;;;14.09;58.17;94648.81;5066195;28;20028;-70
2022/04/25 02:11:35;;;;;;;11.50;4.18;;;;;;;14.13;58.10;94657.28;5065061;28;20029;-69
2022/04/25 02:14:00;;;;;;;18.30;5.25;;;;;;;14.11;58.28;94658.53;5066304;28;20024;-70
2022/04/25 02:16:26;;;;;;;18.45;5.47;;;;;;;14.00;59.06;94651.97;5065394;28;20021;-70
2022/04/25 02:18:52;;;;;;;16.25;5.07;;;;;;;13.91;59.17;94649.53;5065022;28;20029;-69
2022/04/25 02:21:18;;;;;;;14.27;5.05;;;;;;;13.87;59.21;94653.72;5064878;28;20461;-70
2022/04/25 02:23:43;;;;;;;10.65;4.90;;;;;;;13.79;59.53;94652.13;5064660;28;20029;-69
2022/04/25 02:26:09;;;;;;;13.55;4.90;;;;;;;13.84;59.15;94664.94;5066080;28;20028;-70
2022/04/25 02:28:34;;;;;;;14.43;4.72;;;;;;;13.85;59.33;94674.66;5064718;28;20067;-70
2022/04/25 02:31:01;;;;;;;14.95;4.80;;;;;;;13.79;59.25;94667.44;5065703;28;20024;-70
2022/04/25 02:33:27;;;;;;;12.60;5.75;;;;;;;13.78;59.85;94665.81;5064981;28;20028;-69
2022/04/25 02:35:53;;;;;;;20.25;6.57;;;;;;;13.69;60.44;94660.66;5065472;28;20031;-69
2022/04/25 02:38:18;;;;;;;22.23;5.60;;;;;;;13.62;60.65;94662.59;5064972;28;20048;-71
2022/04/25 02:40:44;;;;;;;19.63;6.78;;;;;;;13.53;61.25;94653.06;5064096;28;20036;-70
2022/04/25 02:43:09;;;;;;;15.85;5.95;;;;;;;13.47;61.16;94642.09;5065482;28;20035;-70
2022/04/25 02:45:35;;;;;;;15.48;5.93;;;;;;;13.44;61.05;94629.06;5064316;28;20020;-70
2022/04/25 02:48:01;;;;;;;16.90;5.72;;;;;;;13.31;61.46;94626.44;5065227;28;20025;-70
2022/04/25 02:50:26;;;;;;;18.27;6.32;;;;;;;13.16;62.42;94616.75;5064502;28;20034;-70
2022/04/25 02:52:53;;;;;;;16.83;5.68;;;;;;;13.16;62.63;94616.75;5065343;28;20032;-69
2022/04/25 02:55:21;;;;;;;17.75;6.45;;;;;;;13.13;62.52;94627.94;5064815;28;20024;-70
2022/04/25 02:57:47;;;;;;;22.50;6.78;;;;;;;13.14;62.12;94624.22;5064945;28;20032;-70
2022/04/25 03:00:13;;;;;;;17.33;5.80;;;;;;;13.16;62.26;94632.06;5064704;28;20441;-70
2022/04/25 03:02:38;;;;;;;15.60;6.88;;;;;;;13.08;62.22;94642.03;5064417;28;20399;-70
2022/04/25 03:05:04;;;;;;;16.25;5.65;;;;;;;12.99;62.04;94637.94;5065132;28;20024;-70
2022/04/25 03:07:30;;;;;;;17.95;6.10;;;;;;;12.95;61.95;94642.06;5064535;28;20025;-70
2022/04/25 03:09:56;;;;;;;18.17;6.47;;;;;;;12.93;61.93;94636.91;5065222;28;20039;-69
2022/04/25 03:12:21;;;;;;;25.23;6.38;;;;;;;12.91;62.15;94638.16;5064280;28;20024;-70
2022/04/25 03:14:46;;;;;;;18.27;7.32;;;;;;;12.84;62.31;94647.09;5064977;28;20533;-70
2022/04/25 03:17:12;;;;;;;17.58;6.72;;;;;;;12.87;61.77;94651.22;5064441;28;20198;-70
2022/04/25 03:19:37;;;;;;;27.35;6.53;;;;;;;12.82;62.03;94645.63;5064403;28;20048;-70
2022/04/25 03:22:04;;;;;;;27.23;7.55;;;;;;;12.79;62.25;94646.88;5064999;28;20080;-70
2022/04/25 03:24:30;;;;;;;12.63;5.75;;;;;;;12.71;62.29;94645.25;5064016;28;20495;-69
2022/04/25 03:26:56;;;;;;;18.27;7.45;;;;;;;12.71;62.06;94647.09;5065199;28;20017;-70
2022/04/25 03:29:21;;;;;;;21.23;6.60;;;;;;;12.67;61.51;94651.25;5063960;28;20027;-70
2022/04/25 03:31:47;;;;;;;15.80;6.05;;;;;;;12.62;62.03;94657.28;5065313;28;20024;-70
2022/04/25 03:34:12;;;;;;;20.52;6.40;;;;;;;12.63;62.33;94661.59;5068201;28;20020;-70
2022/04/25 03:36:38;;;;;;;14.52;5.70;;;;;;;12.61;61.85;94669.88;5068731;28;20024;-70
2022/04/25 03:39:03;;;;;;;23.50;7.38;;;;;;;12.59;61.00;94676.53;5068247;28;20029;-70
2022/04/25 03:41:31;;;;;;;19.02;6.18;;;;;;;12.49;61.04;94667.00;5068269;28;20148;-69
2022/04/25 03:43:56;;;;;;;16.92;6.07;;;;;;;12.41;61.43;94669.91;5068746;28;20055;-68
2022/04/25 03:46:22;;;;;;;14.68;5.88;;;;;;;12.40;61.68;94670.13;5067593;28;20057;-69
2022/04/25 03:48:47;;;;;;;21.83;6.70;;;;;;;12.37;61.93;94676.72;5069214;28;20036;-69
2022/04/25 03:51:14;;;;;;;19.42;5.50;;;;;;;12.44;61.38;94679.41;5066199;28;20106;-70
2022/04/25 03:53:39;;;;;;;12.23;5.43;;;;;;;12.46;61.13;94685.44;5068943;28;20032;-69
2022/04/25 03:58:49;;;;;;;20.63;6.70;;;;;;;12.36;61.42;94691.22;5067677;28;20067;-69
2022/04/25 04:01:14;;;;;;;21.73;5.55;;;;;;;12.39;61.24;94690.78;5068298;28;20035;-70
2022/04/25 04:03:40;;;;;;;20.60;4.90;;;;;;;12.39;61.03;94682.72;5067629;28;20407;-70
2022/04/25 04:06:07;;;;;;;23.92;5.65;;;;;;;12.29;61.31;94679.63;5068711;28;20044;-70
2022/04/25 04:08:33;;;;;;;14.43;5.10;;;;;;;12.34;61.17;94685.19;5067773;28;20024;-70
2022/04/25 04:10:58;;;;;;;17.00;5.85;;;;;;;12.29;61.11;94687.69;5068738;28;20032;-70
2022/04/25 04:13:24;;;;;;;15.48;5.00;;;;;;;12.29;61.64;94687.69;5067626;28;20028;-70
2022/04/25 04:15:50;;;;;;;19.92;5.60;;;;;;;12.30;61.85;94683.97;5067598;28;20017;-70
2022/04/25 04:18:15;;;;;;;24.25;7.18;;;;;;;12.35;61.68;94686.84;5068014;28;20081;-70
2022/04/25 04:20:41;;;;;;;22.00;5.97;;;;;;;12.42;61.71;94681.47;5067261;28;20029;-70
2022/04/25 04:23:06;;;;;;;22.35;6.45;;;;;;;12.39;62.22;94682.72;5068448;28;20051;-70
2022/04/25 04:25:33;;;;;;;16.85;6.32;;;;;;;12.35;62.64;94692.22;5066986;28;20043;-70
2022/04/25 04:27:58;;;;;;;19.55;6.07;;;;;;;12.46;62.22;94698.88;5068355;28;20180;-70
2022/04/25 04:30:24;;;;;;;15.77;5.45;;;;;;;12.49;61.92;94698.47;5067102;28;20050;-70
2022/04/25 04:32:51;;;;;;;16.48;5.45;;;;;;;12.54;62.59;94704.00;5068029;28;20025;-70
2022/04/25 04:36:17;;;;;;;22.42;6.03;;;;;;;12.62;62.29;94703.00;5050042;28;20025;-70
2022/04/25 04:38:04;;;;;;;20.48;7.13;;;;;;;12.73;61.82;94715.00;5067051;28;20452;-70
2022/04/25 04:40:30;;;;;;;18.10;6.07;;;;;;;12.88;61.76;94714.75;5068116;28;20439;-70
2022/04/25 04:42:55;;;;;;;19.17;6.40;;;;;;;13.00;61.63;94716.81;5066889;28;20033;-70
2022/04/25 04:45:21;;;;;;;21.63;8.32;;;;;;;13.15;61.39;94711.19;5067296;28;20119;-70
2022/04/25 04:47:46;;;;;;;21.00;6.43;;;;;;;13.23;60.70;94721.75;5067285;28;20031;-70
2022/04/25 04:50:15;;;;;;;20.00;6.43;;;;;;;13.37;60.55;94732.47;5067364;28;20054;-70
2022/04/25 04:52:57;;;;;;;18.10;5.65;;;;;;;13.47;60.15;94730.16;5067467;28;20056;-70
2022/04/25 04:55:22;;;;;;;12.85;5.43;;;;;;;13.65;59.74;94737.59;5066464;28;20162;-69
2022/04/25 04:57:48;;;;;;;18.63;6.20;;;;;;;13.74;59.93;94737.31;5067853;28;20025;-70
2022/04/25 05:00:14;;;;;;;18.83;5.68;;;;;;;13.82;59.76;94746.00;5066803;28;20035;-70
2022/04/25 05:02:40;;;;;;;19.00;6.90;;;;;;;13.93;59.63;94746.34;5067470;28;20043;-70
2022/04/25 05:05:06;;;;;;;19.52;6.38;;;;;;;14.06;59.57;94750.84;5067069;28;20103;-71
2022/04/25 05:07:32;;;;;;;18.70;6.82;;;;;;;14.09;59.87;94739.63;5066903;28;20499;-71
2022/04/25 05:09:57;;;;;;;15.30;6.20;;;;;;;14.18;59.49;94746.44;5067251;28;20024;-70
2022/04/25 05:12:22;;;;;;;13.23;5.07;;;;;;;14.23;59.42;94753.06;5066435;28;20025;-71
2022/04/25 05:14:48;;;;;;;16.15;5.68;;;;;;;14.32;59.86;94743.66;5067258;28;20020;-70
2022/04/25 05:17:13;;;;;;;14.10;5.22;;;;;;;14.47;58.79;94743.34;5066559;28;20016;-70
2022/04/25 05:19:39;;;;;;;13.02;4.60;;;;;;;14.58;58.77;94739.97;5067355;28;20032;-70
2022/04/25 05:22:04;;;;;;;18.08;5.95;;;;;;;14.77;58.31;94736.47;5066715;28;20441;-70
2022/04/25 05:24:30;;;;;;;21.30;5.28;;;;;;;14.94;58.10;94748.41;5066990;28;20021;-69
2022/04/25 05:26:55;;;;;;;13.30;5.18;;;;;;;15.13;57.73;94731.41;5066505;28;20037;-69
2022/04/25 05:29:21;;;;;;;16.30;5.55;;;;;;;15.30;57.70;94740.59;5066306;28;20076;-69
2022/04/25 05:31:46;;;;;;;23.13;5.75;;;;;;;15.50;58.06;94741.41;5066686;28;20025;-69
2022/04/25 05:34:14;;;;;;;19.45;4.68;;;;;;;15.72;56.93;94746.38;5065676;28;20028;-70
2022/04/25 05:36:40;;;;;;;17.98;5.40;;;;;;;15.87;56.26;94749.50;5066442;28;20029;-70
2022/04/25 05:39:05;;;;;;;17.75;6.00;;;;;;;16.07;55.68;94737.66;5065483;28;20035;-69
2022/04/25 05:41:31;;;;;;;26.65;5.53;;;;;;;16.20;54.98;94736.63;5048959;28;20025;-70
2022/04/25 05:43:57;;;;;;;19.63;4.93;;;;;;;16.43;53.88;94753.97;5047516;28;20036;-70
2022/04/25 05:46:22;;;;;;;20.52;4.75;;;;;;;16.58;53.08;94753.56;5066134;28;20374;-70
2022/04/25 05:54:17;;;;;;;18.33;5.63;;;;;;;17.12;51.80;94760.03;5066897;28;20125;-69
2022/04/25 05:56:42;;;;;;;16.90;4.75;;;;;;;17.28;51.45;94764.72;5064321;28;20025;-70
2022/04/25 05:59:09;;;;;;;17.83;4.68;;;;;;;17.41;50.49;94760.97;5066261;28;20021;-69
2022/04/25 06:01:35;;;;;;;16.17;4.15;;;;;;;17.60;50.34;94751.88;5065832;28;20024;-70
2022/04/25 06:04:00;;;;;;;17.58;4.55;;;;;;;17.72;49.45;94743.69;5065411;28;20023;-69
2022/04/25 06:06:26;;;;;;;21.70;4.43;;;;;;;17.86;49.17;94738.84;5048377;28;20016;-70
2022/04/25 06:08:51;;;;;;;18.75;4.30;;;;;;;17.96;48.21;94730.09;5064842;28;20024;-70
2022/04/25 06:11:17;;;;;;;21.15;4.70;;;;;;;17.95;48.36;94731.16;5066195;28;20024;-70
2022/04/25 06:13:44;;;;;;;16.27;4.55;;;;;;;18.10;48.66;94728.75;5065042;28;20233;-70
2022/04/25 06:16:11;;;;;;;15.23;4.15;;;;;;;18.30;47.52;94732.91;5066169;28;20090;-70
2022/04/25 06:18:36;;;;;;;18.08;3.53;;;;;;;18.47;47.22;94732.16;5065342;28;20024;-70
2022/04/25 06:21:02;;;;;;;16.25;4.55;;;;;;;18.52;47.33;94738.47;5065299;28;20449;-70
2022/04/25 06:23:27;;;;;;;19.35;4.82;;;;;;;18.70;45.79;94733.09;5048051;28;20025;-70
2022/04/25 06:25:53;;;;;;;16.00;4.07;;;;;;;18.82;45.86;94733.00;5064396;28;20559;-70
2022/04/25 06:28:18;;;;;;;10.70;3.28;;;;;;;18.94;45.57;94736.47;5065780;28;20033;-70
2022/04/25 06:30:44;;;;;;;16.88;3.75;;;;;;;19.09;45.17;94740.47;5064768;28;20021;-70
2022/04/25 06:33:09;;;;;;;21.88;4.20;;;;;;;19.24;45.04;94738.03;5065801;28;20032;-71
2022/04/25 06:35:35;;;;;;;15.13;3.83;;;;;;;19.33;44.30;94735.69;5065151;28;20043;-69
2022/04/25 06:38:00;;;;;;;17.15;4.00;;;;;;;19.32;44.75;94739.50;5065372;28;20017;-70
2022/04/25 06:40:26;;;;;;;15.77;3.90;;;;;;;19.48;44.38;94731.56;5064703;28;20064;-71
2022/04/25 06:42:52;;;;;;;17.10;3.67;;;;;;;19.56;44.16;94727.56;5064950;28;20422;-70
2022/04/25 06:45:18;;;;;;;22.60;4.05;;;;;;;19.66;43.78;94730.44;5065161;28;20045;-70
2022/04/25 06:47:43;;;;;;;13.27;3.60;;;;;;;19.75;43.76;94733.53;5064478;28;20028;-70
2022/04/25 06:50:09;;;;;;;18.42;3.85;;;;;;;19.83;44.44;94726.84;5065368;28;20402;-70
2022/04/25 06:52:34;;;;;;;14.27;3.22;;;;;;;20.02;43.24;94724.63;5064406;28;20020;-70
2022/04/25 06:55:00;;;;;;;16.15;3.83;;;;;;;20.13;42.82;94718.22;5065299;28;20495;-70
2022/04/25 06:57:26;;;;;;;17.55;3.97;;;;;;;20.25;42.41;94725.44;5064474;28;20105;-70
2022/04/25 06:59:51;;;;;;;24.98;3.90;;;;;;;20.39;43.96;94723.16;5065164;28;20028;-70
2022/04/25 07:02:16;;;;;;;14.88;3.30;;;;;;;20.51;42.68;94722.97;5065040;28;20020;-70
2022/04/25 07:04:42;;;;;;;14.38;3.42;;;;;;;20.55;42.53;94721.41;5064423;28;20052;-70
2022/04/25 07:07:08;;;;;;;14.40;3.03;;;;;;;20.69;42.13;94719.06;5064632;28;20119;-70
2022/04/25 07:09:33;;;;;;;24.42;3.80;;;;;;;20.75;41.63;94725.38;5064170;28;20624;-69
2022/04/25 07:11:59;;;;;;;10.02;3.42;;;;;;;20.88;41.19;94732.28;5065131;28;20506;-70
2022/04/25 07:14:25;;;;;;;19.48;4.43;;;;;;;20.88;42.79;94721.38;5064070;28;20033;-70
2022/04/25 07:16:52;;;;;;;17.55;3.92;;;;;;;20.91;41.81;94718.13;5065201;28;20103;-70
2022/04/25 07:19:18;;;;;;;17.50;3.50;;;;;;;21.07;42.12;94710.94;5064306;28;20107;-71
2022/04/25 07:29:56;;;;;;;14.45;3.03;;;;;;;21.29;40.48;94710.00;5065246;28;20574;-72
2022/04/25 07:32:21;;;;;;;11.35;8.23;;;;;;;21.35;41.19;94708.94;5064415;28;20025;-70
2022/04/25 07:34:47;;;;;;;17.08;3.95;;;;;;;21.44;41.11;94706.53;5064232;28;20518;-70
2022/04/25 07:37:13;;;;;;;15.60;3.72;;;;;;;21.57;40.70;94710.69;5064491;28;20521;-70
2022/04/25 07:39:38;;;;;;;14.32;3.85;;;;;;;21.68;40.15;94713.50;5063694;28;20048;-71
2022/04/25 07:42:04;;;;;;;17.20;3.35;;;;;;;21.77;40.46;94694.69;5065348;28;20016;-70
2022/04/25 07:44:30;;;;;;;22.02;4.10;;;;;;;21.89;40.18;94695.31;5063670;28;20479;-70
2022/04/25 07:46:55;;;;;;;16.17;4.30;;;;;;;21.94;39.32;94686.34;5064798;28;20054;-71
2022/04/25 07:49:21;;;;;;;25.20;4.03;;;;;;;22.03;39.21;94687.44;5045842;28;20103;-71
2022/04/25 07:51:48;;;;;;;14.98;3.88;;;;;;;22.13;39.00;94691.28;5064216;28;20495;-70
2022/04/25 07:54:14;;;;;;;17.77;3.35;;;;;;;22.19;38.00;94687.47;5064115;28;20036;-70
2022/04/25 07:56:40;;;;;;;24.30;3.53;;;;;;;22.20;37.44;94678.19;5063889;28;20128;-70
2022/04/25 07:59:05;;;;;;;15.02;2.75;;;;;;;22.23;34.95;94673.00;5064628;28;20025;-71
2022/04/25 08:01:31;;;;;;;22.27;3.47;;;;;;;22.26;34.63;94670.84;5063347;28;20047;-71
2022/04/25 08:03:57;;;;;;;20.95;4.25;;;;;;;22.35;35.24;94670.06;5064959;28;20024;-71
2022/04/25 08:06:22;;;;;;;17.40;4.23;;;;;;;22.42;36.24;94675.25;5063374;28;20032;-71
2022/04/25 08:08:54;;;;;;;14.35;2.70;;;;;;;22.50;35.67;94684.81;5064434;28;20035;-70
2022/04/25 08:11:20;;;;;;;12.43;2.73;;;;;;;22.37;30.41;94671.69;5064159;28;20033;-72
2022/04/25 08:19:13;;;;;;;19.05;2.72;;;;;;;22.53;28.93;94667.88;5064502;28;20105;-70
2022/04/25 08:21:39;;;;;;;18.95;2.50;;;;;;;22.62;29.18;94662.72;5068260;28;20510;-71
2022/04/25 08:24:05;;;;;;;22.02;2.63;;;;;;;22.51;29.39;94677.41;5067625;28;20548;-71
2022/04/25 08:26:30;;;;;;;17.55;2.83;;;;;;;22.28;28.08;94661.28;5067390;28;20025;-70
2022/04/25 08:28:56;;;;;;;19.83;2.50;;;;;;;22.43;27.87;94670.59;5067903;28;20039;-71
2022/04/25 08:31:21;;;;;;;21.00;2.95;;;;;;;22.38;28.30;94667.84;5066818;28;20055;-70
2022/04/25 08:33:49;;;;;;;18.95;2.95;;;;;;;22.43;27.91;94659.66;5068049;28;20025;-70
2022/04/25 08:36:16;;;;;;;18.70;3.35;;;;;;;22.51;28.28;94655.56;5066952;28;20017;-70
2022/04/25 08:38:43;;;;;;;25.55;3.05;;;;;;;22.58;27.75;94656.97;5067898;28;20736;-70
2022/04/25 08:41:10;;;;;;;20.63;3.22;;;;;;;22.57;26.56;94660.78;5066924;28;20073;-70
2022/04/25 08:43:36;;;;;;;13.75;2.47;;;;;;;22.67;26.70;94659.97;5067437;28;20035;-72
2022/04/25 08:46:02;;;;;;;23.02;3.03;;;;;;;22.65;27.35;94667.63;5032924;28;20536;-70
2022/04/25 08:48:27;;;;;;;20.60;2.33;;;;;;;22.72;27.83;94653.69;5031788;28;20020;-73
2022/04/25 08:50:53;;;;;;;14.77;2.67;;;;;;;22.68;26.90;94655.34;5067615;28;20029;-71
2022/04/25 08:53:18;;;;;;;26.75;2.83;;;;;;;22.70;27.54;94647.69;5066915;28;20669;-69
2022/04/25 08:55:44;;;;;;;14.63;2.50;;;;;;;22.74;26.34;94648.78;5049715;28;20025;-71
2022/04/25 08:58:10;;;;;;;17.13;2.80;;;;;;;22.73;26.22;94658.09;5048925;28;20177;-70
2022/04/25 09:00:36;;;;;;;15.55;2.53;;;;;;;22.67;25.91;94643.59;5067287;28;20479;-70
2022/04/25 09:03:01;;;;;;;16.08;2.95;;;;;;;22.71;25.64;94635.66;5067055;28;20025;-72
2022/04/25 09:05:27;;;;;;;25.20;2.88;;;;;;;22.76;25.58;94641.13;5067207;28;20037;-71
2022/04/25 09:07:52;;;;;;;24.92;2.67;;;;;;;22.68;26.57;94622.56;5067095;28;20115;-71
2022/04/25 09:10:18;;;;;;;17.58;2.60;;;;;;;22.74;26.07;94620.63;5031963;28;20036;-70
2022/04/25 09:12:46;;;;;;;15.23;2.00;;;;;;;22.83;25.07;94616.25;5067375;28;20031;-72
2022/04/25 09:15:12;;;;;;;15.23;1.77;;;;;;;22.97;26.14;94619.25;5066314;28;20183;-69
2022/04/25 09:17:38;;;;;;;23.73;2.65;;;;;;;23.01;25.28;94647.66;5067324;28;20530;-72
2022/04/25 09:20:08;;;;;;;18.60;2.85;;;;;;;23.04;24.09;94627.97;5066351;28;20055;-72
2022/04/25 09:22:39;;;;;;;19.65;2.75;;;;;;;23.11;24.55;94621.38;5067005;28;20510;-70
2022/04/25 09:25:06;;;;;;;22.02;2.42;;;;;;;23.16;24.36;94616.75;5067164;28;20056;-74
2022/04/25 09:27:32;;;;;;;13.70;2.15;;;;;;;23.18;24.50;94624.66;5066166;28;20044;-74
2022/04/25 09:30:25;;;;;;;27.65;2.20;;;;;;;23.06;23.90;94614.84;5067048;28;20115;-72
2022/04/25 09:32:52;;;;;;;16.40;2.50;;;;;;;23.14;25.14;94612.63;5047664;28;20044;-71
2022/04/25 09:35:28;;;;;;;12.38;2.42;;;;;;;23.19;22.79;94618.09;5067104;28;20097;-72
2022/04/25 09:37:53;;;;;;;16.95;1.75;;;;;;;23.16;22.84;94615.91;5066489;28;20411;-75
2022/04/25 09:40:20;;;;;;;16.73;1.60;;;;;;;23.23;23.07;94608.22;5048077;28;20032;-71
2022/04/25 09:42:47;;;;;;;19.75;2.17;;;;;;;23.33;23.02;94610.09;5048938;28;20086;-71
2022/04/25 09:45:14;;;;;;;22.63;2.20;;;;;;;23.37;23.43;94599.44;5065586;28;20499;-73
2022/04/25 09:47:40;;;;;;;28.52;3.38;;;;;;;23.44;22.58;94591.78;5067084;28;20036;-71
2022/04/25 09:50:09;;;;;;;9.57;1.50;;;;;;;23.57;25.52;94604.03;5065706;28;20431;-73
2022/04/25 09:52:58;;;;;;;15.25;2.13;;;;;;;23.64;22.33;94590.03;5066845;28;20116;-72
2022/04/25 09:55:30;;;;;;;21.92;2.42;;;;;;;23.65;22.11;94589.75;5055048;28;20036;-71
2022/04/25 09:57:57;;;;;;;15.05;2.35;;;;;;;23.69;21.70;94596.34;5065305;28;20059;-70
2022/04/25 10:00:37;;;;;;;12.88;1.58;;;;;;;23.68;21.48;94593.88;5048827;28;20041;-72
2022/04/25 10:03:06;;;;;;;19.70;2.58;;;;;;;23.72;21.02;94586.72;5065156;28;20028;-72
2022/04/25 10:05:48;;;;;;;18.60;2.63;;;;;;;23.74;21.50;94587.28;5066854;28;20055;-72
2022/04/25 10:08:17;;;;;;;17.70;2.15;;;;;;;23.90;22.49;94582.53;5065941;28;20438;-71
2022/04/25 10:10:50;;;;;;;10.05;2.60;;;;;;;23.84;21.32;94575.44;5065408;28;20054;-74
2022/04/25 10:13:16;;;;;;;14.93;1.95;;;;;;;23.99;22.62;94581.94;5066430;28;20491;-71
2022/04/25 10:15:42;;;;;;;15.32;2.58;;;;;;;24.03;21.04;94570.13;5065153;28;20038;-73
2022/04/25 10:18:09;;;;;;;16.17;2.03;;;;;;;24.15;22.12;94575.25;5066310;28;20055;-72
2022/04/25 10:20:36;;;;;;;12.55;1.88;;;;;;;24.19;21.35;94575.50;5065264;28;20530;-73
2022/04/25 10:23:03;;;;;;;12.63;2.38;;;;;;;24.30;20.85;94577.09;5065518;28;20035;-72
2022/04/25 10:25:29;;;;;;;15.63;1.92;;;;;;;24.34;20.09;94580.06;5065810;28;20025;-72
2022/04/25 10:27:54;;;;;;;15.77;1.77;;;;;;;24.32;20.24;94579.53;5064854;28;20029;-73
2022/04/25 10:30:20;;;;;;;15.52;1.90;;;;;;;24.19;20.15;94584.56;5031494;28;20033;-72
2022/04/25 10:32:46;;;;;;;10.90;1.50;;;;;;;24.23;20.46;94581.25;5046982;28;20032;-72
2022/04/25 10:35:15;;;;;;;11.60;1.70;;;;;;;24.20;22.49;94569.75;5031476;28;20024;-71
2022/04/25 10:37:42;;;;;;;17.20;1.83;;;;;;;24.08;24.25;94575.53;5065251;28;20111;-71
2022/04/25 10:40:09;;;;;;;14.60;1.77;;;;;;;24.22;25.48;94576.84;5065667;28;20091;-70
2022/04/25 10:46:00;;;;;;;12.73;2.40;;;;;;;24.08;24.89;94583.75;4983345;28;20543;-71
2022/04/25 10:48:26;;;;;;;13.57;2.13;;;;;;;24.01;24.68;94580.53;4984278;28;20153;-70
2022/04/25 10:51:36;;;;;;;9.85;2.15;;;;;;;23.92;25.68;94587.72;5033227;28;20045;-70
2022/04/25 10:54:02;;;;;;;15.63;2.28;;;;;;;23.76;25.80;94593.28;4982679;28;20030;-72
2022/04/25 10:56:28;;;;;;;12.98;2.10;;;;;;;23.73;26.29;94587.56;5054075;28;20036;-73
2022/04/25 10:59:25;;;;;;;15.27;1.95;;;;;;;23.67;26.77;94582.09;5064242;28;20418;-71
2022/04/25 11:01:51;;;;;;;10.55;1.95;;;;;;;23.75;26.43;94588.06;5065289;28;20035;-72
2022/04/25 11:04:18;;;;;;;10.30;2.05;;;;;;;23.77;27.23;94574.94;5064866;28;20024;-71
2022/04/25 11:06:43;;;;;;;11.05;2.15;;;;;;;23.74;26.42;94591.91;5064399;28;20564;-73
2022/04/25 11:09:09;;;;;;;9.63;1.55;;;;;;;23.73;27.03;94602.03;5064913;28;20024;-71
2022/04/25 11:11:48;;;;;;;16.40;1.58;;;;;;;23.85;26.14;94598.16;5064135;28;20426;-71
2022/04/25 11:14:14;;;;;;;21.17;2.13;;;;;;;23.97;26.28;94592.34;5065277;28;20101;-71
2022/04/25 11:16:39;;;;;;;6.07;1.50;;;;;;;24.09;24.88;94592.81;5064340;28;20023;-72
2022/04/25 11:19:08;;;;;;;10.68;1.80;;;;;;;24.19;25.60;94591.94;5065001;28;20032;-71
2022/04/25 11:21:33;;;;;;;13.35;1.45;;;;;;;24.31;24.76;94592.41;5064764;28;20102;-71
2022/04/25 11:24:01;;;;;;;11.40;1.60;;;;;;;24.42;25.04;94600.56;5064564;28;20020;-71
2022/04/25 11:26:26;;;;;;;9.10;1.23;;;;;;;24.46;23.83;94604.34;5064875;28;20054;-71
2022/04/25 11:28:55;;;;;;;14.57;1.50;;;;;;;24.56;23.26;94593.31;5063889;28;20663;-72
2022/04/25 11:31:32;;;;;;;14.00;1.67;;;;;;;24.61;23.41;94599.84;5065001;28;20036;-71
2022/04/25 11:34:02;;;;;;;4.38;0.88;;;;;;;24.76;22.89;94601.66;5063135;28;20483;-75
2022/04/25 11:36:32;;;;;;;6.97;1.48;;;;;;;24.76;22.70;94596.97;5062387;28;20404;-70
2022/04/25 11:41:42;;;;;;;7.65;0.93;;;;;;;25.09;22.89;94592.84;5062366;28;20123;-72
2022/04/25 11:44:08;;;;;;;12.13;1.80;;;;;;;25.10;22.69;94599.97;5063980;28;20033;-71
2022/04/25 11:46:37;;;;;;;12.40;1.48;;;;;;;25.17;22.50;94604.00;5063268;28;20518;-72
2022/04/25 11:49:03;;;;;;;8.65;1.38;;;;;;;25.19;23.19;94592.75;5064372;28;20086;-71
2022/04/25 11:51:30;;;;;;;11.73;1.35;;;;;;;25.25;24.33;94598.97;5063563;28;20028;-72
2022/04/25 11:53:59;;;;;;;9.23;1.58;;;;;;;25.44;22.72;94590.81;5066725;28;20465;-71
2022/04/25 11:56:28;;;;;;;8.02;0.90;;;;;;;25.42;22.12;94593.03;5068559;28;20035;-71